Time;durP1;ratioP1;P1;durP2;ratioP2;P2;SDS_P1;SDS_P2;PMS_P1;PMS_P2;Temp;Humidity;BMP_temperature;BMP_pressure;BME280_temperature;BME280_humidity;BME280_pressure;Samples;Min_cycle;Max_cycle;Signal;HPM_P1;HPM_P2
2022/02/10 00:07:11;;;;;;;34.00;14.02;;;;;;;;;;4921410;29;20154;-60
2022/02/10 00:15:42;;;;;;;30.92;13.73;;;;;;;;;;4988845;28;20081;-61
2022/02/10 00:18:24;;;;;;;23.95;10.52;;;;;;;;;;4989670;28;20058;-59
2022/02/10 00:20:58;;;;;;;28.88;12.38;;;;;;;;;;4983264;28;20061;-61
2022/02/10 00:23:40;;;;;;;29.00;12.98;;;;;;;;;;4988892;28;20050;-60
2022/02/10 00:34:26;;;;;;;26.70;13.00;;;;;;;;;;4948152;28;20085;-61
2022/02/10 00:37:13;;;;;;;26.00;10.95;;;;;;;;;;4971818;28;20042;-61
2022/02/10 00:42:29;;;;;;;23.45;10.70;;;;;;;;;;4977734;28;20046;-62
2022/02/10 00:44:56;;;;;;;20.45;9.35;;;;;;;;;;4972738;28;20050;-62
2022/02/10 00:47:23;;;;;;;22.10;9.27;;;;;;;;;;4988390;28;20070;-62
2022/02/10 00:49:50;;;;;;;23.23;9.75;;;;;;;;;;4996759;28;20158;-59
2022/02/10 00:52:17;;;;;;;22.70;10.85;;;;;;;;;;4983600;28;20097;-60
2022/02/10 00:54:43;;;;;;;23.42;10.38;;;;;;;;;;4971539;28;20057;-59
2022/02/10 00:57:13;;;;;;;20.90;10.13;;;;;;;;;;4968209;28;20046;-62
2022/02/10 00:59:59;;;;;;;23.50;10.20;;;;;;;;;;4973195;28;20102;-61
2022/02/10 01:10:52;;;;;;;22.75;10.82;;;;;;;;;;4970370;28;20054;-62
2022/02/10 01:13:40;;;;;;;22.80;10.38;;;;;;;;;;4970045;28;20125;-60
2022/02/10 01:29:31;;;;;;;21.13;9.90;;;;;;;;;;5000670;28;20050;-61
2022/02/10 01:30:15;;;;;;;20.23;9.70;;;;;;;;;;4997159;28;20055;-61
2022/02/10 01:32:44;;;;;;;25.15;10.10;;;;;;;;;;4992178;28;20113;-61
2022/02/10 01:35:15;;;;;;;19.10;8.75;;;;;;;;;;4971518;28;20424;-61
2022/02/10 01:37:41;;;;;;;20.65;10.30;;;;;;;;;;4971278;28;20077;-61
2022/02/10 01:40:15;;;;;;;19.92;9.90;;;;;;;;;;4978063;28;20065;-62
2022/02/10 02:04:56;;;;;;;20.73;8.90;;;;;;;;;;4915148;28;20047;-62
2022/02/10 02:07:28;;;;;;;21.25;9.20;;;;;;;;;;4985379;28;20066;-62
2022/02/10 02:09:57;;;;;;;18.08;9.10;;;;;;;;;;4971092;28;20074;-60
2022/02/10 02:12:23;;;;;;;18.30;8.63;;;;;;;;;;4970873;28;20069;-63
2022/02/10 02:14:50;;;;;;;18.02;8.23;;;;;;;;;;4972741;28;20051;-62
2022/02/10 02:17:19;;;;;;;23.48;9.10;;;;;;;;;;4968958;28;20057;-62
2022/02/10 02:19:48;;;;;;;19.92;8.65;;;;;;;;;;4977435;28;20078;-61
2022/02/10 02:22:18;;;;;;;18.42;8.73;;;;;;;;;;4966369;28;20046;-62
2022/02/10 02:24:45;;;;;;;18.70;8.95;;;;;;;;;;4972251;28;20051;-61
2022/02/10 02:27:16;;;;;;;20.90;8.75;;;;;;;;;;4978675;28;20054;-62
2022/02/10 02:29:58;;;;;;;17.65;8.05;;;;;;;;;;4983021;28;20047;-61
2022/02/10 02:32:33;;;;;;;19.80;8.35;;;;;;;;;;4981141;28;20050;-61
2022/02/10 02:38:03;;;;;;;20.55;8.80;;;;;;;;;;4968992;28;20046;-61
2022/02/10 03:06:00;;;;;;;18.27;8.07;;;;;;;;;;4946575;28;20058;-61
2022/02/10 03:08:27;;;;;;;18.38;8.00;;;;;;;;;;4963724;28;20047;-61
2022/02/10 03:11:04;;;;;;;16.23;7.82;;;;;;;;;;4970562;28;20051;-61
2022/02/10 03:13:36;;;;;;;20.55;8.10;;;;;;;;;;4973263;28;20072;-62
2022/02/10 03:16:29;;;;;;;18.73;8.60;;;;;;;;;;4990388;28;20061;-61
2022/02/10 03:19:01;;;;;;;15.05;7.07;;;;;;;;;;4972985;28;20047;-61
2022/02/10 03:21:56;;;;;;;16.60;7.97;;;;;;;;;;4971097;28;20058;-61
2022/02/10 04:03:07;;;;;;;17.42;6.25;;;;;;;;;;4978453;28;20101;-62
2022/02/10 04:08:29;;;;;;;21.63;7.72;;;;;;;;;;4971440;28;20065;-61
2022/02/10 04:13:53;;;;;;;19.63;8.15;;;;;;;;;;4978537;28;20126;-62
2022/02/10 04:16:25;;;;;;;13.57;6.35;;;;;;;;;;4969135;28;20046;-61
2022/02/10 04:19:38;;;;;;;17.10;7.85;;;;;;;;;;4973905;28;20066;-62
2022/02/10 04:22:09;;;;;;;15.55;7.20;;;;;;;;;;4983468;28;20046;-61
2022/02/10 04:25:02;;;;;;;16.65;7.85;;;;;;;;;;4993126;28;20048;-61
2022/02/10 04:27:52;;;;;;;17.05;7.20;;;;;;;;;;4986510;28;20050;-61
2022/02/10 04:58:00;;;;;;;18.02;7.43;;;;;;;;;;4958752;28;20055;-62
2022/02/10 05:00:54;;;;;;;16.20;7.38;;;;;;;;;;4972635;28;20121;-62
2022/02/10 05:03:43;;;;;;;20.58;9.30;;;;;;;;;;4967855;28;20137;-62
2022/02/10 05:06:53;;;;;;;20.13;8.32;;;;;;;;;;4973534;28;20055;-61
2022/02/10 05:12:38;;;;;;;17.60;8.55;;;;;;;;;;4972714;28;20042;-61
2022/02/10 05:18:11;;;;;;;18.67;8.10;;;;;;;;;;4932426;28;20058;-61
2022/02/10 05:21:05;;;;;;;15.40;7.28;;;;;;;;;;4974707;28;20047;-61
2022/02/10 05:23:55;;;;;;;18.52;7.97;;;;;;;;;;4973858;28;20065;-63
2022/02/10 05:34:50;;;;;;;18.40;8.27;;;;;;;;;;4979002;28;20050;-61
2022/02/10 05:37:19;;;;;;;18.58;8.60;;;;;;;;;;4990437;28;20062;-62
2022/02/10 05:39:50;;;;;;;16.50;6.95;;;;;;;;;;4985405;28;20137;-62
2022/02/10 05:42:41;;;;;;;16.85;7.80;;;;;;;;;;4991571;28;20058;-61
2022/02/10 05:45:15;;;;;;;21.30;8.57;;;;;;;;;;4985590;28;20120;-61
2022/02/10 05:47:58;;;;;;;15.80;6.75;;;;;;;;;;4991994;28;20177;-61
2022/02/10 05:51:00;;;;;;;22.88;9.38;;;;;;;;;;4985493;28;20069;-61
2022/02/10 05:53:54;;;;;;;20.35;8.20;;;;;;;;;;4988516;28;20061;-62
2022/02/10 05:56:34;;;;;;;20.65;8.38;;;;;;;;;;4991549;28;20054;-61
2022/02/10 05:59:55;;;;;;;18.63;8.18;;;;;;;;;;4984383;28;20058;-60
2022/02/10 06:02:31;;;;;;;28.35;11.52;;;;;;;;;;4969940;28;20055;-60
2022/02/10 06:52:08;;;;;;;22.02;9.45;;;;;;;;;;4938087;28;20054;-62
2022/02/10 06:54:49;;;;;;;24.10;9.95;;;;;;;;;;4995400;28;20112;-63
2022/02/10 06:57:52;;;;;;;27.98;11.13;;;;;;;;;;4984372;28;20046;-59
2022/02/10 07:03:40;;;;;;;22.25;9.73;;;;;;;;;;4998770;28;20061;-63
2022/02/10 07:06:26;;;;;;;29.30;10.63;;;;;;;;;;5004069;28;20065;-61
2022/02/10 07:09:13;;;;;;;28.60;11.25;;;;;;;;;;4986122;28;20136;-62
2022/02/10 07:12:03;;;;;;;28.70;10.75;;;;;;;;;;4986681;28;20347;-60
2022/02/10 07:14:57;;;;;;;25.63;10.68;;;;;;;;;;4961701;28;20519;-63
2022/02/10 07:48:02;;;;;;;5.95;2.22;;;;;;;;;;4990182;28;20101;-62
2022/02/10 07:51:09;;;;;;;5.50;2.40;;;;;;;;;;4957908;28;20058;-63
2022/02/10 07:59:30;;;;;;;6.43;2.25;;;;;;;;;;4962942;28;20337;-62
2022/02/10 08:57:19;;;;;;;4.28;1.52;;;;;;;;;;4966205;28;20054;-61
2022/02/10 09:00:17;;;;;;;7.60;2.17;;;;;;;;;;4973043;28;20058;-58
2022/02/10 09:05:54;;;;;;;4.57;1.50;;;;;;;;;;5059570;27;20514;-63
2022/02/10 09:55:53;;;;;;;5.30;1.88;;;;;;;;;;5042849;28;20060;-63
2022/02/10 10:01:19;;;;;;;14.30;5.20;;;;;;;;;;4999672;28;20140;-61
2022/02/10 10:03:58;;;;;;;14.10;4.88;;;;;;;;;;5015867;28;20746;-59
2022/02/10 10:06:49;;;;;;;12.18;2.70;;;;;;;;;;5037524;28;20052;-63
2022/02/10 10:09:34;;;;;;;7.45;2.40;;;;;;;;;;5038370;28;20103;-63
2022/02/10 10:15:18;;;;;;;5.78;2.40;;;;;;;;;;5032829;28;20102;-62
2022/02/10 10:18:17;;;;;;;7.57;2.17;;;;;;;;;;5045742;28;20080;-63
2022/02/10 10:24:09;;;;;;;4.10;1.63;;;;;;;;;;5029353;28;20053;-61
2022/02/10 10:26:51;;;;;;;6.00;1.95;;;;;;;;;;5025074;28;20057;-63
2022/02/10 10:51:54;;;;;;;6.45;2.45;;;;;;;;;;4949543;28;20069;-63
2022/02/10 10:54:29;;;;;;;7.47;2.00;;;;;;;;;;5009058;28;20108;-64
2022/02/10 10:57:00;;;;;;;7.53;2.40;;;;;;;;;;5002628;28;20140;-62
2022/02/10 10:59:38;;;;;;;8.00;2.47;;;;;;;;;;5023974;28;20107;-64
2022/02/10 11:38:36;;;;;;;10.60;3.10;;;;;;;;;;5014731;28;20068;-60
2022/02/10 11:44:15;;;;;;;15.70;5.15;;;;;;;;;;4987871;28;20065;-63
2022/02/10 11:47:33;;;;;;;9.65;4.30;;;;;;;;;;5018853;28;20062;-62
2022/02/10 14:09:30;;;;;;;21.10;4.30;;;;;;;;;;5026255;28;20176;-59
2022/02/10 14:12:43;;;;;;;6.40;1.95;;;;;;;;;;5031002;28;20055;-62
2022/02/10 14:15:21;;;;;;;7.32;1.10;;;;;;;;;;5040434;28;20418;-63
2022/02/10 14:17:52;;;;;;;2.72;0.80;;;;;;;;;;5029497;28;20076;-61
2022/02/10 14:20:38;;;;;;;3.78;0.80;;;;;;;;;;5023033;28;20057;-64
2022/02/10 14:23:18;;;;;;;3.60;0.70;;;;;;;;;;5009474;28;20064;-62
2022/02/10 14:25:52;;;;;;;4.82;1.05;;;;;;;;;;5018811;28;20058;-62
2022/02/10 14:28:21;;;;;;;2.53;0.63;;;;;;;;;;5041459;28;20054;-62
2022/02/10 14:30:48;;;;;;;;;;;;;;;;;;5036715;28;20065;-62
2022/02/10 14:33:21;;;;;;;3.47;0.90;;;;;;;;;;5028509;28;19997;-63
2022/02/10 14:35:53;;;;;;;6.30;0.90;;;;;;;;;;5023457;28;20054;-62
2022/02/10 14:38:36;;;;;;;3.97;1.20;;;;;;;;;;5008988;28;20401;-61
2022/02/10 14:41:27;;;;;;;10.30;1.00;;;;;;;;;;5011649;28;20061;-62
2022/02/10 15:45:55;;;;;;;8.82;1.13;;;;;;;;;;4957361;28;20054;-62
2022/02/10 16:15:52;;;;;;;8.15;2.20;;;;;;;;;;5056472;28;20049;-61
2022/02/10 16:18:10;;;;;;;10.45;1.20;;;;;;;;;;5033327;28;20084;-61
2022/02/10 16:20:38;;;;;;;6.28;1.10;;;;;;;;;;5040574;28;20053;-62
2022/02/10 16:23:07;;;;;;;5.55;1.02;;;;;;;;;;5034398;28;20131;-61
2022/02/10 16:25:36;;;;;;;9.55;1.00;;;;;;;;;;5021481;28;20065;-59
2022/02/10 16:28:10;;;;;;;;;;;;;;;;;;5025210;28;20083;-62
2022/02/10 16:30:39;;;;;;;5.18;1.42;;;;;;;;;;5034854;28;19931;-61
2022/02/10 16:33:06;;;;;;;7.57;0.98;;;;;;;;;;5025586;28;20088;-62
2022/02/10 16:35:33;;;;;;;4.78;0.80;;;;;;;;;;5005153;28;20054;-62
2022/02/10 16:38:02;;;;;;;5.13;1.00;;;;;;;;;;5012284;28;20053;-62
2022/02/10 16:40:28;;;;;;;;;;;;;;;;;;5033008;28;20059;-62
2022/02/10 16:42:55;;;;;;;4.15;0.80;;;;;;;;;;5024294;28;20375;-61
2022/02/10 16:45:21;;;;;;;5.10;0.93;;;;;;;;;;5018218;28;20571;-61
2022/02/10 16:47:48;;;;;;;3.55;0.90;;;;;;;;;;5023746;28;20083;-59
2022/02/10 16:50:14;;;;;;;10.68;1.30;;;;;;;;;;5017866;28;20529;-62
2022/02/10 16:52:45;;;;;;;7.32;1.05;;;;;;;;;;5025818;28;20050;-62
2022/02/10 16:55:22;;;;;;;10.23;1.45;;;;;;;;;;5017881;28;20080;-62
2022/02/10 16:58:01;;;;;;;3.63;0.80;;;;;;;;;;5024164;28;20073;-62
2022/02/10 17:03:45;;;;;;;4.28;1.00;;;;;;;;;;5074764;27;20422;-62
2022/02/10 17:15:00;;;;;;;8.18;1.23;;;;;;;;;;5062280;28;20063;-61
2022/02/10 17:17:41;;;;;;;6.75;1.23;;;;;;;;;;5053553;28;20060;-62
2022/02/10 17:20:26;;;;;;;7.97;1.30;;;;;;;;;;5061565;28;20483;-62
2022/02/10 17:26:01;;;;;;;5.80;1.40;;;;;;;;;;5000057;28;20060;-63
2022/02/10 17:28:28;;;;;;;4.63;1.27;;;;;;;;;;5006496;28;20153;-63
2022/02/10 17:33:51;;;;;;;5.43;1.92;;;;;;;;;;5056507;28;20513;-62
2022/02/10 17:36:30;;;;;;;5.35;1.10;;;;;;;;;;5054420;28;20049;-63
2022/02/10 17:42:05;;;;;;;3.67;0.85;;;;;;;;;;5055958;28;19932;-59
2022/02/10 17:44:38;;;;;;;4.13;1.10;;;;;;;;;;5077567;28;20139;-60
2022/02/10 17:52:37;;;;;;;11.35;1.00;;;;;;;;;;5072096;28;20084;-60
2022/02/10 17:55:05;;;;;;;6.90;1.23;;;;;;;;;;5061384;28;20083;-63
2022/02/10 17:57:33;;;;;;;;;;;;;;;;;;5053663;28;20048;-62
2022/02/10 18:00:00;;;;;;;3.45;0.63;;;;;;;;;;5076841;28;20297;-60
2022/02/10 18:02:26;;;;;;;7.45;1.15;;;;;;;;;;5054995;28;20061;-59
2022/02/10 18:04:54;;;;;;;7.90;1.55;;;;;;;;;;5076523;28;20075;-63
2022/02/10 18:07:21;;;;;;;6.25;1.35;;;;;;;;;;5054747;28;20059;-60
2022/02/10 18:15:21;;;;;;;12.18;3.63;;;;;;;;;;5046230;28;20434;-59
2022/02/10 18:17:53;;;;;;;7.25;2.10;;;;;;;;;;5041914;28;20051;-58
2022/02/10 18:20:24;;;;;;;3.50;1.17;;;;;;;;;;5046642;28;20056;-61
2022/02/10 18:25:57;;;;;;;4.90;1.00;;;;;;;;;;5039925;28;20118;-59
2022/02/10 18:28:33;;;;;;;5.07;1.40;;;;;;;;;;5039487;28;20045;-62
2022/02/10 18:34:17;;;;;;;6.07;1.10;;;;;;;;;;5057358;28;20056;-62
2022/02/10 19:02:00;;;;;;;3.70;1.00;;;;;;;;;;5041210;28;20052;-62
2022/02/10 19:07:33;;;;;;;10.07;1.00;;;;;;;;;;5045102;28;20052;-63
2022/02/10 19:10:00;;;;;;;5.47;1.05;;;;;;;;;;5040116;28;20767;-61
2022/02/10 19:12:30;;;;;;;8.20;1.10;;;;;;;;;;5046935;28;20059;-62
2022/02/10 19:15:08;;;;;;;11.43;1.70;;;;;;;;;;5055690;28;20059;-62
2022/02/10 19:17:36;;;;;;;3.60;1.37;;;;;;;;;;5046005;28;20098;-58
2022/02/10 19:20:04;;;;;;;10.18;1.30;;;;;;;;;;5041523;28;20491;-62
2022/02/10 19:22:30;;;;;;;3.13;1.00;;;;;;;;;;5045937;28;20144;-62
2022/02/10 19:24:57;;;;;;;17.73;4.25;;;;;;;;;;5045013;28;20139;-59
2022/02/10 19:27:24;;;;;;;10.20;3.35;;;;;;;;;;5040444;28;20140;-61
2022/02/10 19:29:56;;;;;;;5.15;1.73;;;;;;;;;;5046172;28;20055;-62
2022/02/10 19:32:26;;;;;;;6.65;1.60;;;;;;;;;;5040794;28;20068;-61
2022/02/10 19:34:55;;;;;;;7.65;1.27;;;;;;;;;;5044793;28;20052;-59
2022/02/10 19:37:25;;;;;;;11.07;1.20;;;;;;;;;;5037870;28;20073;-59
2022/02/10 19:39:58;;;;;;;6.55;1.30;;;;;;;;;;5044151;28;20059;-61
2022/02/10 19:42:30;;;;;;;6.68;1.50;;;;;;;;;;5039176;28;20071;-60
2022/02/10 19:45:00;;;;;;;4.63;1.42;;;;;;;;;;5062350;28;20063;-59
2022/02/10 19:47:29;;;;;;;4.93;1.63;;;;;;;;;;5038148;28;20076;-61
2022/02/10 19:49:57;;;;;;;8.80;1.73;;;;;;;;;;5045868;28;20053;-63
2022/02/10 19:52:26;;;;;;;6.50;1.60;;;;;;;;;;5039429;28;20144;-60
2022/02/10 19:54:56;;;;;;;8.35;1.75;;;;;;;;;;5045781;28;20499;-60
2022/02/10 19:57:24;;;;;;;9.30;1.60;;;;;;;;;;5040420;28;20045;-61
2022/02/10 19:59:53;;;;;;;5.13;1.33;;;;;;;;;;5046055;28;20052;-62
2022/02/10 20:02:22;;;;;;;8.77;1.63;;;;;;;;;;5038190;28;20145;-59
2022/02/10 20:04:50;;;;;;;7.63;1.58;;;;;;;;;;5045398;28;20049;-58
2022/02/10 20:07:16;;;;;;;12.15;1.35;;;;;;;;;;5038646;28;20059;-62
2022/02/10 20:09:44;;;;;;;5.95;1.50;;;;;;;;;;5044774;28;20060;-59
2022/02/10 20:12:10;;;;;;;5.50;1.50;;;;;;;;;;5039380;28;20060;-61
2022/02/10 20:14:38;;;;;;;6.75;1.70;;;;;;;;;;5045070;28;20075;-59
2022/02/10 20:17:04;;;;;;;4.20;1.27;;;;;;;;;;5042870;28;20049;-63
2022/02/10 20:19:32;;;;;;;5.40;1.40;;;;;;;;;;5038837;28;20049;-62
2022/02/10 20:22:01;;;;;;;6.72;1.85;;;;;;;;;;5045328;28;20048;-61
2022/02/10 20:24:27;;;;;;;10.15;2.55;;;;;;;;;;5038427;28;20103;-62
2022/02/10 20:26:54;;;;;;;6.20;2.40;;;;;;;;;;5045798;28;20052;-62
2022/02/10 20:29:20;;;;;;;7.80;2.20;;;;;;;;;;5040447;28;20552;-60
2022/02/10 20:31:47;;;;;;;7.82;2.35;;;;;;;;;;5047216;28;20049;-62
2022/02/10 20:34:15;;;;;;;6.00;1.40;;;;;;;;;;5040356;28;20076;-61
2022/02/10 20:36:42;;;;;;;3.58;1.20;;;;;;;;;;5044459;28;20056;-61
2022/02/10 20:39:17;;;;;;;11.90;1.40;;;;;;;;;;5037136;28;20053;-62
2022/02/10 20:41:49;;;;;;;6.55;1.10;;;;;;;;;;5044701;28;20494;-61
2022/02/10 20:44:16;;;;;;;6.00;1.10;;;;;;;;;;5039463;28;20516;-65
2022/02/10 20:46:49;;;;;;;5.88;1.30;;;;;;;;;;5044305;28;20410;-61
2022/02/10 20:49:17;;;;;;;10.07;1.52;;;;;;;;;;5038069;28;20495;-61
2022/02/10 20:51:44;;;;;;;4.80;1.25;;;;;;;;;;5044488;28;20126;-59
2022/02/10 20:54:12;;;;;;;8.50;1.30;;;;;;;;;;5039380;28;20049;-59
2022/02/10 20:56:38;;;;;;;5.97;1.45;;;;;;;;;;5044179;28;20118;-59
2022/02/10 20:59:18;;;;;;;7.97;1.33;;;;;;;;;;5038855;28;20135;-61
2022/02/10 21:01:44;;;;;;;8.07;1.73;;;;;;;;;;5044445;28;20092;-58
2022/02/10 21:04:11;;;;;;;8.07;2.28;;;;;;;;;;5039253;28;20056;-61
2022/02/10 21:06:50;;;;;;;14.63;1.95;;;;;;;;;;5043537;28;20068;-59
2022/02/10 21:09:30;;;;;;;9.82;2.20;;;;;;;;;;5028823;28;20085;-60
2022/02/10 21:11:57;;;;;;;7.75;1.48;;;;;;;;;;5061926;28;20056;-60
2022/02/10 21:14:27;;;;;;;9.65;2.22;;;;;;;;;;5043598;28;20049;-60
2022/02/10 21:16:54;;;;;;;11.65;1.55;;;;;;;;;;5059782;28;20071;-60
2022/02/10 21:19:23;;;;;;;12.00;2.85;;;;;;;;;;5044469;28;20060;-62
2022/02/10 21:21:51;;;;;;;14.93;4.90;;;;;;;;;;5033883;28;20520;-61
2022/02/10 21:24:24;;;;;;;14.77;3.23;;;;;;;;;;5043416;28;20052;-61
2022/02/10 21:27:07;;;;;;;7.15;2.40;;;;;;;;;;5037882;28;20045;-61
2022/02/10 21:29:33;;;;;;;4.28;1.35;;;;;;;;;;5044267;28;20056;-59
2022/02/10 21:32:00;;;;;;;13.27;2.15;;;;;;;;;;5038232;28;20341;-62
2022/02/10 21:34:32;;;;;;;7.18;1.55;;;;;;;;;;5044535;28;20068;-61
2022/02/10 21:37:03;;;;;;;9.15;1.58;;;;;;;;;;5036678;28;20056;-62
2022/02/10 21:39:46;;;;;;;7.22;1.50;;;;;;;;;;5060466;28;20044;-63
2022/02/10 21:47:54;;;;;;;5.65;1.95;;;;;;;;;;5007384;28;20099;-61
2022/02/10 21:56:33;;;;;;;4.95;1.27;;;;;;;;;;5049201;28;20056;-62
2022/02/10 21:59:27;;;;;;;5.05;1.35;;;;;;;;;;5047647;28;20053;-62
2022/02/10 22:10:44;;;;;;;4.68;1.27;;;;;;;;;;4977625;28;20061;-63
2022/02/10 22:18:48;;;;;;;3.35;1.10;;;;;;;;;;5041594;28;20053;-61
2022/02/10 22:21:19;;;;;;;12.55;2.50;;;;;;;;;;5063985;28;20486;-61
2022/02/10 22:23:46;;;;;;;14.35;3.63;;;;;;;;;;5040297;28;20049;-62
2022/02/10 22:26:19;;;;;;;4.68;1.63;;;;;;;;;;5046687;28;20052;-63
2022/02/10 22:28:52;;;;;;;5.60;1.42;;;;;;;;;;5041826;28;20049;-60
2022/02/10 22:31:27;;;;;;;2.85;0.98;;;;;;;;;;5063514;28;20056;-59
2022/02/10 22:34:13;;;;;;;6.05;1.38;;;;;;;;;;5039956;28;20067;-62
2022/02/10 22:36:42;;;;;;;4.15;1.30;;;;;;;;;;5046006;28;20233;-62
2022/02/10 22:39:09;;;;;;;4.28;1.27;;;;;;;;;;5040653;28;20417;-62
2022/02/10 22:41:36;;;;;;;5.38;1.23;;;;;;;;;;5047058;28;20056;-62
2022/02/10 22:44:06;;;;;;;7.20;1.27;;;;;;;;;;5040677;28;20065;-61
2022/02/10 22:46:33;;;;;;;4.65;1.20;;;;;;;;;;5044677;28;20147;-62
2022/02/10 22:49:00;;;;;;;6.95;1.20;;;;;;;;;;5039256;28;20064;-61
2022/02/10 22:51:28;;;;;;;7.15;1.20;;;;;;;;;;5046000;28;20115;-62
2022/02/10 22:53:55;;;;;;;6.88;1.40;;;;;;;;;;5041177;28;20106;-61
2022/02/10 22:56:23;;;;;;;4.78;1.25;;;;;;;;;;5044989;28;20057;-59
2022/02/10 22:58:52;;;;;;;5.13;1.20;;;;;;;;;;5057024;28;20216;-61
2022/02/10 23:01:18;;;;;;;;;;;;;;;;;;5047135;28;20143;-62
2022/02/10 23:03:46;;;;;;;3.83;1.35;;;;;;;;;;5058725;28;19955;-62
2022/02/10 23:06:14;;;;;;;4.50;1.60;;;;;;;;;;5040423;28;20053;-61
2022/02/10 23:08:41;;;;;;;9.18;1.70;;;;;;;;;;5046362;28;20569;-61
2022/02/10 23:11:07;;;;;;;6.10;1.40;;;;;;;;;;5038866;28;20099;-58
2022/02/10 23:13:35;;;;;;;9.35;1.40;;;;;;;;;;5047451;28;20052;-58
2022/02/10 23:16:03;;;;;;;7.45;1.48;;;;;;;;;;5036270;28;20049;-59
2022/02/10 23:18:30;;;;;;;5.35;1.20;;;;;;;;;;5061898;28;20099;-61
2022/02/10 23:20:59;;;;;;;18.38;5.90;;;;;;;;;;5039519;28;20166;-58
2022/02/10 23:23:27;;;;;;;7.72;1.88;;;;;;;;;;5045378;28;20056;-63
2022/02/10 23:25:54;;;;;;;8.10;1.60;;;;;;;;;;5039630;28;20072;-63
2022/02/10 23:28:23;;;;;;;11.48;1.67;;;;;;;;;;5048462;28;20061;-61
2022/02/10 23:30:50;;;;;;;5.20;1.23;;;;;;;;;;5029962;28;20080;-62
2022/02/10 23:33:20;;;;;;;6.57;1.40;;;;;;;;;;5049142;28;20048;-58
2022/02/10 23:38:36;;;;;;;4.78;1.30;;;;;;;;;;4997278;28;20049;-61
2022/02/10 23:41:38;;;;;;;7.57;2.03;;;;;;;;;;5030453;28;20049;-61
2022/02/10 23:43:58;;;;;;;8.55;1.40;;;;;;;;;;5045967;28;20060;-60
2022/02/10 23:46:25;;;;;;;8.52;1.40;;;;;;;;;;5040726;28;20396;-58
2022/02/10 23:48:54;;;;;;;7.72;1.15;;;;;;;;;;5046877;28;20037;-62
2022/02/10 23:51:23;;;;;;;5.65;1.60;;;;;;;;;;5033834;28;20052;-61
2022/02/10 23:53:51;;;;;;;8.07;1.38;;;;;;;;;;5040477;28;20062;-58
2022/02/10 23:56:20;;;;;;;5.13;1.23;;;;;;;;;;5040344;28;20171;-61
2022/02/10 23:58:57;;;;;;;8.48;1.20;;;;;;;;;;5046257;28;20299;-59
